Latest Weather Observations for Centre Island

IDD60801

Issued at 1:01 pm CST Wednesday 22 February 2017 (issued every 30 minutes, with the page automatically refreshed every 10 minutes)

About weather observations | Map of weather stations | Latest weather observations for NT | Other Formats
Station Details ID: 014703 Name: CENTRE ISLAND Lat: -15.74 Lon: 136.82 Height: 12.2 m
Data from the previous 72 hours. | See also: Recent months at Centre Island
Date/Time
CST
Temp
°C
App
Temp
°C
Dew
Point
°C
Rel
Hum
%
Delta-T
°C
Wind Press
QNH
hPa
Press
MSL
hPa
Rain since
9am
mm
Dir  Spd
km/h
Gust
km/h
Spd
kts
Gust
kts
22/01:00pm 29.1 33.5 23.8 73 3.7 SSE 7 9 4 5 1007.8 1007.7 0.0
22/12:30pm 29.4 33.3 23.6 71 4.0 W 9 11 5 6 1008.0 1007.9 0.0
22/12:00pm 29.2 32.1 23.9 73 3.7 WSW 15 17 8 9 1008.5 1008.4 0.0
22/11:30am 28.6 30.8 23.9 75 3.3 W 19 20 10 11 1008.6 1008.5 0.0
22/11:00am 28.8 31.7 23.9 75 3.4 WSW 15 19 8 10 1009.0 1008.9 0.0
22/10:30am 28.5 31.1 23.9 76 3.2 SW 17 24 9 13 1009.0 1008.9 0.0
22/10:00am 27.9 30.7 23.7 78 2.9 WSW 15 19 8 10 1009.1 1009.0 0.0
22/09:30am 27.3 29.7 23.7 81 2.5 WSW 17 20 9 11 1009.3 1009.2 0.0
22/09:00am 27.1 30.0 23.8 82 2.3 SW 15 22 8 12 1009.3 1009.2 12.6
22/08:30am 26.4 29.3 23.9 86 1.7 WSW 15 22 8 12 1009.3 1009.2 12.6
22/08:00am 26.2 29.1 23.9 87 1.6 SW 15 20 8 11 1008.9 1008.8 12.6
22/07:30am 25.4 27.7 23.5 89 1.3 SW 17 20 9 11 1008.5 1008.4 12.6
22/07:00am 25.0 27.5 23.8 93 0.8 WSW 17 20 9 11 1008.1 1008.0 12.6
22/06:30am 24.9 27.1 23.9 94 0.7 WSW 19 20 10 11 1007.9 1007.8 12.6
22/06:00am 24.8 26.7 23.8 94 0.7 WSW 20 22 11 12 1007.6 1007.5 12.6
22/05:30am 24.9 27.5 23.9 94 0.7 WSW 17 20 9 11 1007.3 1007.2 12.6
22/05:00am 24.9 27.3 23.7 93 0.8 WSW 17 19 9 10 1007.0 1006.9 12.6
22/04:30am 24.8 27.7 23.8 94 0.7 WSW 15 17 8 9 1006.7 1006.6 12.6
22/04:00am 24.9 27.8 23.9 94 0.7 WSW 15 19 8 10 1006.3 1006.2 12.6
22/03:30am 24.9 27.8 23.9 94 0.7 WSW 15 19 8 10 1006.4 1006.3 12.6
22/03:00am 24.9 27.5 23.9 94 0.7 WSW 17 19 9 10 1006.4 1006.3 12.6
22/02:30am 24.8 27.4 23.9 95 0.6 WSW 17 20 9 11 1006.6 1006.5 12.6
22/02:00am 24.9 27.6 24.2 96 0.5 W 17 19 9 10 1006.8 1006.7 12.6
22/01:30am 24.9 28.0 24.2 96 0.5 W 15 17 8 9 1007.0 1006.9 12.6
22/01:00am 25.1 27.8 24.1 94 0.7 W 17 20 9 11 1007.2 1007.1 12.6
22/12:30am 25.1 27.8 24.1 94 0.7 W 17 19 9 10 1007.3 1007.2 12.6
22/12:00am 25.2 27.9 24.2 94 0.7 W 17 19 9 10 1007.7 1007.6 12.6
 
Date/Time
CST
Temp
°C
App
Temp
°C
Dew
Point
°C
Rel
Hum
%
Delta-T
°C
Wind Press
QNH
hPa
Press
MSL
hPa
Rain since
9am
mm
Dir  Spd
km/h
Gust
km/h
Spd
kts
Gust
kts
21/11:30pm 25.3 27.7 24.3 94 0.7 W 19 22 10 12 1008.1 1008.0 12.6
21/11:00pm 25.2 28.2 24.7 97 0.3 WNW 17 19 9 10 1008.3 1008.2 12.6
21/10:30pm 25.2 28.2 24.7 97 0.3 WNW 17 20 9 11 1008.4 1008.3 12.6
21/10:00pm 25.0 28.0 24.7 98 0.2 NW 17 22 9 12 1008.1 1008.0 12.4
21/09:30pm 24.7 28.0 24.5 99 0.1 WNW 15 20 8 11 1008.0 1007.9 12.4
21/09:00pm 24.3 27.7 24.1 99 0.1 NW 13 19 7 10 1008.0 1007.9 12.4
21/08:30pm 24.2 28.3 24.0 99 0.1 WNW 9 13 5 7 1007.9 1007.8 12.4
21/08:00pm 24.2 28.3 24.0 99 0.1 WNW 9 9 5 5 1007.8 1007.7 12.4
21/07:30pm 24.2 26.4 24.0 99 0.1 WSW 19 26 10 14 1008.0 1007.9 11.0
21/07:00pm 25.2 27.4 24.2 94 0.7 NW 20 28 11 15 1007.5 1007.4 2.6
21/06:30pm 25.2 27.7 23.8 92 1.0 NNW 17 20 9 11 1006.9 1006.8 1.8
21/06:00pm 25.2 28.6 24.0 93 0.8 NNW 13 19 7 10 1006.7 1006.6 1.8
21/05:30pm 25.2 29.1 24.2 94 0.7 NNW 11 15 6 8 1006.5 1006.4 1.8
21/05:00pm 25.5 28.4 23.9 91 1.1 NW 15 20 8 11 1006.4 1006.3 1.8
21/04:30pm 25.9 29.1 24.3 91 1.1 WNW 15 22 8 12 1006.3 1006.2 1.8
21/04:00pm 24.7 27.4 23.5 93 0.8 WNW 15 19 8 10 1006.4 1006.3 1.6
21/03:30pm 25.1 28.2 23.5 91 1.1 W 13 17 7 9 1006.4 1006.3 0.6
21/03:00pm 25.4 28.9 24.2 93 0.8 WSW 13 15 7 8 1006.4 1006.3 0.6
21/02:30pm 25.3 28.5 23.7 91 1.1 WSW 13 20 7 11 1006.4 1006.3 0.6
21/02:00pm 26.0 27.1 23.7 87 1.6 WSW 24 28 13 15 1006.6 1006.5 0.6
21/01:30pm 25.5 26.6 23.0 86 1.7 W 22 26 12 14 1006.6 1006.5 0.6
21/01:00pm 24.8 26.9 24.1 96 0.5 W 20 26 11 14 1007.1 1007.0 0.6
21/12:30pm 24.4 26.0 23.2 93 0.8 WSW 20 26 11 14 1007.5 1007.4 0.4
21/12:00pm 24.6 26.2 23.2 92 1.0 WSW 20 28 11 15 1007.5 1007.4 0.2
21/11:30am 25.3 27.0 22.4 84 2.0 SW 17 24 9 13 1007.7 1007.6 0.0
21/11:00am 25.0 25.9 21.9 83 2.1 WSW 20 28 11 15 1007.8 1007.7 0.0
21/10:30am 24.9 25.9 22.2 85 1.8 SW 20 28 11 15 1007.7 1007.6 0.0
21/10:00am 24.4 23.8 21.9 86 1.7 SW 28 39 15 21 1007.5 1007.4 0.0
21/09:30am 24.3 24.1 22.0 87 1.5 SW 26 39 14 21 1007.3 1007.2 0.0
21/09:00am 23.7 23.9 22.0 90 1.1 SW 24 35 13 19 1007.3 1007.2 167.8
21/08:30am 22.9 22.1 21.7 93 0.8 SW 28 39 15 21 1007.1 1007.0 167.8
21/08:00am 22.6 22.2 22.4 99 0.1 SW 28 37 15 20 1006.9 1006.8 167.8
21/07:30am 22.3 21.4 22.1 99 0.1 SW 30 39 16 21 1006.6 1006.5 167.8
21/07:00am 22.3 21.3 22.0 98 0.2 SW 30 39 16 21 1006.1 1006.0 167.6
21/06:30am 22.7 21.6 21.7 94 0.7 SW 30 41 16 22 1005.6 1005.5 167.4
21/06:00am 23.0 22.1 21.5 91 1.0 SW 28 39 15 21 1005.2 1005.1 167.4
21/05:30am 22.9 21.7 21.5 92 0.9 WSW 30 41 16 22 1004.8 1004.7 167.4
21/05:00am 22.8 21.9 21.4 92 0.9 SW 28 35 15 19 1004.8 1004.7 167.4
21/04:30am 22.6 21.6 21.2 92 0.9 SW 28 35 15 19 1004.5 1004.4 167.4
21/04:00am 22.8 22.0 21.6 93 0.8 SW 28 35 15 19 1004.5 1004.4 167.4
21/03:30am 22.7 21.9 21.7 94 0.7 SW 28 35 15 19 1004.5 1004.4 167.4
21/03:00am 22.6 21.3 22.1 97 0.3 SSW 32 39 17 21 1004.5 1004.4 167.4
21/02:30am 22.5 22.1 22.3 99 0.1 SSW 28 39 15 21 1004.5 1004.4 167.4
21/02:00am 22.5 21.8 22.5 100 0.0 SSW 30 39 16 21 1004.7 1004.6 167.2
21/01:30am 22.4 21.3 22.4 100 0.0 SSW 32 39 17 21 1004.7 1004.6 166.6
21/01:00am 22.5 20.8 22.5 100 0.0 SSW 35 46 19 25 1005.1 1005.0 165.8
21/12:30am 22.5 20.8 22.5 100 0.0 SSW 35 43 19 23 1005.6 1005.5 162.6
21/12:00am 22.6 21.0 22.6 100 0.0 SSW 35 43 19 23 1006.1 1006.0 156.6
 
Date/Time
CST
Temp
°C
App
Temp
°C
Dew
Point
°C
Rel
Hum
%
Delta-T
°C
Wind Press
QNH
hPa
Press
MSL
hPa
Rain since
9am
mm
Dir  Spd
km/h
Gust
km/h
Spd
kts
Gust
kts
20/11:30pm 22.5 20.1 22.5 100 0.0 SSW 39 44 21 24 1006.2 1006.1 150.8
20/11:00pm 22.7 20.4 22.7 100 0.0 SSW 39 46 21 25 1006.1 1006.0 146.4
20/10:30pm 22.8 20.9 22.8 100 0.0 SSW 37 48 20 26 1006.0 1005.9 145.4
20/10:00pm 22.7 20.0 22.7 100 0.0 SSW 41 48 22 26 1005.8 1005.7 142.8
20/09:30pm 22.8 19.8 22.8 100 0.0 S 43 56 23 30 1005.4 1005.3 140.2
20/09:00pm 22.9 19.4 22.9 100 0.0 SSW 46 59 25 32 1004.8 1004.7 138.2
20/08:30pm 22.8 18.8 22.8 100 0.0 S 48 57 26 31 1004.4 1004.3 136.2
20/08:00pm 23.1 19.3 23.1 100 0.0 S 48 59 26 32 1003.7 1003.6 133.0
20/07:30pm 23.3 18.5 23.3 100 0.0 S 54 67 29 36 1003.0 1002.9 130.0
20/07:00pm 23.2 17.9 23.2 100 0.0 SSW 56 70 30 38 1002.6 1002.5 126.0
20/06:47pm 23.3 17.9 23.3 100 0.0 SSW 57 76 31 41 1002.2 1002.1 124.2
20/06:30pm 23.5 17.8 23.5 100 0.0 SSW 59 74 32 40 1001.8 1001.7 122.2
20/06:00pm 23.4 16.9 23.4 100 0.0 SSW 63 82 34 44 1000.9 1000.8 121.8
20/05:30pm 23.1 15.1 23.1 100 0.0 SSW 70 89 38 48 1000.2 1000.1 121.2
20/05:00pm 23.1 15.1 23.1 100 0.0 SSW 70 93 38 50 999.5 999.4 119.4
20/04:30pm 23.2 15.3 23.2 100 0.0 S 70 89 38 48 998.3 998.2 118.4
20/04:04pm 23.2 15.5 23.2 100 0.0 S 69 87 37 47 998.2 998.1 117.8
20/04:00pm 23.1 15.7 23.1 100 0.0 SSW 67 82 36 44 998.2 998.1 117.4
20/03:34pm 23.0 15.9 23.0 100 0.0 S 65 83 35 45 997.8 997.7 116.4
20/03:30pm 23.0 15.5 23.0 100 0.0 S 67 83 36 45 997.8 997.7 116.2
20/03:04pm 22.9 15.8 22.9 100 0.0 S 65 83 35 45 997.3 997.2 114.6
20/03:00pm 22.7 15.5 22.7 100 0.0 S 65 82 35 44 997.5 997.4 114.6
20/02:35pm 22.9 17.5 22.9 100 0.0 SSW 56 74 30 40 998.8 998.7 110.4
20/02:30pm 22.6 16.4 22.6 100 0.0 SSW 59 74 32 40 998.7 998.6 108.6
20/02:02pm 22.7 15.8 22.7 100 0.0 SSW 63 82 34 44 998.0 997.9 102.6
20/02:00pm 22.8 15.6 22.8 100 0.0 SSW 65 82 35 44 998.0 997.9 102.6
20/01:38pm 22.8 14.9 22.8 100 0.0 SSW 69 87 37 47 997.5 997.4 97.2
20/01:30pm 22.7 15.1 22.7 100 0.0 SSW 67 83 36 45 997.7 997.6 95.4
20/01:00pm 22.5 13.4 22.5 100 0.0 SSW 74 98 40 53 997.6 997.5 85.0
20/12:30pm 22.6 12.8 22.6 100 0.0 SSW 78 98 42 53 997.7 997.6 74.4
20/12:00pm 22.9 13.3 22.9 100 0.0 S 78 98 42 53 997.9 997.8 64.2
20/11:30am 22.5 11.7 22.5 100 0.0 S 83 109 45 59 998.1 998.0 54.4
20/11:00am 22.9 12.3 22.9 100 0.0 S 83 106 45 57 998.0 997.9 45.4
20/10:30am 23.0 12.5 23.0 100 0.0 S 83 111 45 60 998.5 998.4 33.4
20/10:00am 23.2 13.0 23.2 100 0.0 S 82 104 44 56 998.4 998.3 20.6
20/09:30am 23.0 12.7 23.0 100 0.0 S 82 104 44 56 999.1 999.0 12.6
20/09:00am 23.0 12.1 23.0 100 0.0 S 85 113 46 61 999.2 999.1 211.4
20/08:35am 23.3 14.3 23.3 100 0.0 S 76 113 41 61 998.9 998.8 205.6
20/08:30am 23.5 15.4 23.5 100 0.0 S 72 93 39 50 999.3 999.2 205.2
20/08:06am 23.5 15.0 23.5 100 0.0 S 74 93 40 50 1000.3 1000.2 200.8
20/08:00am 23.6 15.9 23.6 100 0.0 S 70 85 38 46 1000.9 1000.8 197.8
20/07:30am 23.3 15.6 23.3 100 0.0 S 69 89 37 48 1001.0 1000.9 187.4
20/07:01am 23.5 16.3 23.5 100 0.0 S 67 85 36 46 1000.8 1000.7 177.0
20/07:00am 23.8 16.8 23.8 100 0.0 S 67 83 36 45 1000.8 1000.7 176.8
20/06:30am 23.5 16.7 23.5 100 0.0 S 65 89 35 48 1001.5 1001.4 170.6
20/06:00am 23.7 17.8 23.7 100 0.0 S 61 80 33 43 1001.5 1001.4 165.6
20/05:42am 23.5 17.5 23.5 100 0.0 S 61 80 33 43 1001.5 1001.4 162.8
20/05:30am 23.2 16.2 23.2 100 0.0 SSW 65 80 35 43 1001.4 1001.3 161.0
20/05:00am 23.3 16.0 23.3 100 0.0 S 67 85 36 46 1001.2 1001.1 154.4
20/04:56am 23.8 17.9 23.8 100 0.0 S 61 80 33 43 1001.5 1001.4 153.4
20/04:30am 23.7 18.2 23.7 100 0.0 S 59 72 32 39 1001.7 1001.6 144.8
20/04:06am 23.4 17.3 23.4 100 0.0 S 61 80 33 43 1001.8 1001.7 135.4
20/04:00am 23.6 17.2 23.6 100 0.0 SSE 63 76 34 41 1001.5 1001.4 133.4
20/03:48am 23.6 16.5 23.6 100 0.0 SSE 67 85 36 46 1001.3 1001.2 129.0
20/03:30am 23.8 17.6 23.8 100 0.0 SSE 63 76 34 41 1001.4 1001.3 124.0
20/03:00am 23.9 19.3 23.7 99 0.1 SSE 54 61 29 33 1002.6 1002.5 115.2
20/02:30am 24.1 19.6 23.9 99 0.1 SSE 54 69 29 37 1002.5 1002.4 105.2
20/02:00am 23.9 19.3 23.7 99 0.1 SSE 54 63 29 34 1002.2 1002.1 101.8
20/01:30am 24.3 21.6 23.6 96 0.5 S 44 56 24 30 1003.1 1003.0 96.4
20/01:00am 24.2 21.6 23.9 98 0.2 S 44 54 24 29 1003.3 1003.2 94.4
20/12:30am 24.1 21.7 23.8 98 0.2 SSE 43 54 23 29 1004.8 1004.7 92.0
20/12:00am 24.0 21.4 23.5 97 0.3 SSE 43 52 23 28 1004.6 1004.5 88.0
 
Date/Time
CST
Temp
°C
App
Temp
°C
Dew
Point
°C
Rel
Hum
%
Delta-T
°C
Wind Press
QNH
hPa
Press
MSL
hPa
Rain since
9am
mm
Dir  Spd
km/h
Gust
km/h
Spd
kts
Gust
kts
19/11:30pm 24.4 22.5 24.1 98 0.2 SSE 41 50 22 27 1005.0 1004.9 86.4
19/11:00pm 24.3 22.2 23.8 97 0.3 SSE 41 50 22 27 1005.2 1005.1 84.2
19/10:30pm 24.2 21.0 23.5 96 0.5 SSE 46 56 25 30 1004.8 1004.7 81.4
19/10:00pm 24.6 22.1 23.7 95 0.6 SSE 43 50 23 27 1004.6 1004.5 79.6
19/09:30pm 24.7 23.4 23.8 95 0.6 SSE 37 44 20 24 1005.0 1004.9 78.4
19/09:00pm 24.6 22.5 23.7 95 0.6 SSE 41 48 22 26 1005.0 1004.9 77.6
19/08:30pm 24.5 21.9 23.6 95 0.6 SSE 43 50 23 27 1004.9 1004.8 75.8
19/08:00pm 24.5 21.7 23.5 94 0.7 SE 44 59 24 32 1004.3 1004.2 73.8
19/07:30pm 24.6 22.1 23.7 95 0.6 SE 43 52 23 28 1004.1 1004.0 71.4
19/07:00pm 24.6 21.5 23.7 95 0.6 SE 46 54 25 29 1003.5 1003.4 70.0
19/06:30pm 24.7 20.9 23.7 94 0.7 SE 50 59 27 32 1003.4 1003.3 67.6
19/06:00pm 24.7 21.1 23.5 93 0.8 SE 48 59 26 32 1002.8 1002.7 66.4
19/05:30pm 24.5 19.7 23.3 93 0.8 SE 54 65 29 35 1003.1 1003.0 66.0
19/05:00pm 24.4 19.8 23.7 96 0.5 SE 54 67 29 36 1003.1 1003.0 66.0
19/04:30pm 24.0 17.4 23.8 99 0.1 SE 65 78 35 42 1002.8 1002.7 65.0
19/04:00pm 24.2 18.9 23.5 96 0.5 SE 57 65 31 35 1002.9 1002.8 59.6
19/03:30pm 24.2 17.7 23.3 95 0.6 SE 63 80 34 43 1002.7 1002.6 58.6
19/03:09pm 24.2 18.2 23.5 96 0.5 SE 61 82 33 44 1002.8 1002.7 58.6
19/03:00pm 24.4 18.6 23.9 97 0.3 SE 61 76 33 41 1002.6 1002.5 58.6
19/02:30pm 24.6 19.9 24.4 99 0.1 SE 57 69 31 37 1002.7 1002.6 57.8
19/02:00pm 24.7 17.7 24.5 99 0.1 SE 69 87 37 47 1002.8 1002.7 54.6
19/01:57pm 24.2 17.3 24.0 99 0.1 SE 67 87 36 47 1002.7 1002.6 54.2
19/01:30pm 24.7 18.8 24.4 98 0.2 SE 63 74 34 40 1003.0 1002.9 50.6

Other Formats:

Comma delimited format used in spreadsheet applications
http://www.bom.gov.au/fwo/IDD60801/IDD60801.94248.axf

JavaScript Object Notation format (JSON) in row-major order
http://www.bom.gov.au/fwo/IDD60801/IDD60801.94248.json